createdAt,value
2022-10-22T00:01:22.940Z,10.32
2022-10-22T00:03:51.296Z,4.50
2022-10-22T00:06:19.788Z,3.17
2022-10-22T00:08:49.483Z,8.68
2022-10-22T00:11:20.802Z,8.15
2022-10-22T00:13:49.930Z,6.40
2022-10-22T00:16:18.533Z,13.65
2022-10-22T00:18:47.046Z,8.35
2022-10-22T00:21:15.920Z,5.55
2022-10-22T00:23:45.002Z,4.45
2022-10-22T00:26:14.860Z,3.60
2022-10-22T00:28:43.452Z,4.20
2022-10-22T00:31:11.980Z,8.00
2022-10-22T00:33:40.523Z,3.65
2022-10-22T00:36:10.097Z,4.88
2022-10-22T00:38:38.672Z,5.43
2022-10-22T00:41:07.244Z,0.88
2022-10-22T00:44:03.265Z,1.10
2022-10-22T00:46:32.123Z,6.82
2022-10-22T00:49:05.033Z,4.10
2022-10-22T00:51:36.659Z,1.65
2022-10-22T00:54:08.547Z,1.33
2022-10-22T00:56:37.280Z,1.48
2022-10-22T01:01:40.947Z,2.67
2022-10-22T01:04:09.216Z,0.50
2022-10-22T01:06:37.800Z,6.70
2022-10-22T01:09:18.039Z,2.25
2022-10-22T01:12:01.274Z,7.53
2022-10-22T01:14:42.692Z,2.05
2022-10-22T01:20:11.404Z,2.38
2022-10-22T01:22:46.211Z,3.55
2022-10-22T01:28:02.637Z,0.90
2022-10-22T01:30:32.630Z,0.28
2022-10-22T01:33:06.775Z,0.95
2022-10-22T01:35:40.208Z,0.73
2022-10-22T01:38:13.845Z,2.53
2022-10-22T01:40:43.926Z,2.83
2022-10-22T01:43:13.121Z,0.82
2022-10-22T01:45:48.363Z,1.65
2022-10-22T01:48:40.072Z,2.10
2022-10-22T01:51:26.007Z,2.20
2022-10-22T01:54:01.497Z,0.65
2022-10-22T01:56:51.413Z,1.63
2022-10-22T01:59:33.027Z,0.52
2022-10-22T02:02:11.943Z,0.32
2022-10-22T02:04:45.856Z,0.93
2022-10-22T02:07:20.092Z,1.23
2022-10-22T02:09:50.154Z,0.32
2022-10-22T02:12:23.087Z,2.35
2022-10-22T02:14:52.792Z,1.27
2022-10-22T02:17:24.641Z,1.85
2022-10-22T02:19:57.433Z,3.03
2022-10-22T02:22:27.407Z,6.40
2022-10-22T02:24:56.524Z,2.50
2022-10-22T02:27:32.680Z,12.40
2022-10-22T02:30:07.099Z,2.90
2022-10-22T02:32:44.660Z,1.42
2022-10-22T02:35:18.471Z,1.33
2022-10-22T02:37:48.037Z,3.03
2022-10-22T02:40:17.345Z,2.30
2022-10-22T02:42:48.688Z,6.90
2022-10-22T02:45:18.432Z,1.45
2022-10-22T02:47:48.524Z,1.70
2022-10-22T02:50:17.063Z,1.50
2022-10-22T02:52:45.547Z,3.75
2022-10-22T02:55:13.840Z,1.77
2022-10-22T02:57:42.672Z,1.42
2022-10-22T03:00:12.848Z,2.70
2022-10-22T03:02:41.173Z,0.55
2022-10-22T03:05:11.907Z,0.50
2022-10-22T03:07:40.754Z,5.57
2022-10-22T03:10:10.387Z,6.97
2022-10-22T03:12:38.905Z,2.55
2022-10-22T03:15:08.156Z,1.10
2022-10-22T03:17:37.251Z,0.73
2022-10-22T03:20:06.971Z,7.68
2022-10-22T03:22:37.780Z,2.03
2022-10-22T03:25:12.045Z,1.40
2022-10-22T03:27:41.735Z,2.05
2022-10-22T03:30:11.667Z,0.90
2022-10-22T03:32:40.225Z,1.10
2022-10-22T03:35:09.316Z,3.70
2022-10-22T03:37:40.527Z,5.90
2022-10-22T03:40:11.565Z,1.02
2022-10-22T03:42:40.238Z,5.45
2022-10-22T03:45:10.198Z,1.20
2022-10-22T03:47:39.124Z,0.95
2022-10-22T03:50:09.482Z,3.08
2022-10-22T03:52:41.340Z,2.55
2022-10-22T03:55:10.928Z,0.82
2022-10-22T03:57:39.755Z,0.80
2022-10-22T04:00:10.307Z,3.28
2022-10-22T04:02:39.841Z,0.80
2022-10-22T04:05:09.216Z,1.35
2022-10-22T04:07:39.354Z,2.05
2022-10-22T04:10:09.005Z,1.40
2022-10-22T04:12:37.498Z,2.65
2022-10-22T04:15:06.566Z,5.25
2022-10-22T04:17:35.897Z,2.33
2022-10-22T04:20:06.067Z,3.45
2022-10-22T04:22:36.184Z,3.72
2022-10-22T04:25:07.282Z,1.23
2022-10-22T04:27:36.827Z,1.40
2022-10-22T04:30:07.259Z,2.50
2022-10-22T04:32:36.007Z,4.20
2022-10-22T04:35:05.437Z,2.47
2022-10-22T04:37:34.139Z,6.82
2022-10-22T04:40:02.707Z,1.35
2022-10-22T04:42:32.941Z,1.67
2022-10-22T04:45:01.503Z,1.40
2022-10-22T04:47:30.003Z,4.47
2022-10-22T04:49:58.182Z,3.80
2022-10-22T04:52:26.726Z,0.90
2022-10-22T04:54:55.219Z,0.90
2022-10-22T04:57:23.707Z,0.90
2022-10-22T04:59:54.087Z,6.35
2022-10-22T05:02:22.688Z,1.55
2022-10-22T05:04:51.566Z,5.30
2022-10-22T05:07:20.218Z,1.92
2022-10-22T05:09:48.994Z,1.75
2022-10-22T05:12:17.907Z,1.75
2022-10-22T05:14:46.641Z,1.27
2022-10-22T05:17:16.257Z,2.65
2022-10-22T05:19:44.777Z,1.23
2022-10-22T05:22:13.323Z,0.85
2022-10-22T05:24:41.832Z,2.47
2022-10-22T05:27:10.087Z,1.08
2022-10-22T05:29:38.907Z,3.00
2022-10-22T05:32:07.471Z,6.43
2022-10-22T05:34:37.425Z,4.13
2022-10-22T05:37:05.928Z,1.48
2022-10-22T05:39:36.819Z,3.33
2022-10-22T05:42:05.832Z,3.30
2022-10-22T05:44:34.408Z,2.55
2022-10-22T05:47:02.999Z,5.60
2022-10-22T05:49:31.485Z,4.47
2022-10-22T05:52:01.049Z,1.65
2022-10-22T05:54:29.571Z,6.97
2022-10-22T05:56:58.096Z,2.28
2022-10-22T05:59:26.612Z,2.10
2022-10-22T06:01:55.154Z,1.55
2022-10-22T06:04:23.684Z,2.05
2022-10-22T06:06:54.303Z,2.42
2022-10-22T06:09:28.311Z,3.22
2022-10-22T06:11:57.604Z,6.57
2022-10-22T06:14:27.356Z,8.40
2022-10-22T06:16:56.391Z,5.55
2022-10-22T06:19:26.753Z,0.77
2022-10-22T06:21:55.408Z,1.67
2022-10-22T06:24:24.989Z,5.30
2022-10-22T06:26:54.022Z,2.05
2022-10-22T06:29:22.335Z,2.10
2022-10-22T06:31:50.880Z,14.85
2022-10-22T06:34:19.740Z,6.60
2022-10-22T06:36:48.628Z,5.22
2022-10-22T06:39:18.853Z,4.82
2022-10-22T06:41:48.461Z,3.22
2022-10-22T06:44:20.754Z,6.20
2022-10-22T06:46:51.994Z,2.20
2022-10-22T06:49:21.855Z,7.32
2022-10-22T06:51:51.908Z,2.53
2022-10-22T06:54:20.767Z,2.85
2022-10-22T06:56:50.612Z,2.17
2022-10-22T06:59:19.212Z,5.65
2022-10-22T07:01:47.784Z,1.80
2022-10-22T07:04:16.424Z,2.92
2022-10-22T07:06:46.260Z,3.10
2022-10-22T07:09:16.442Z,2.28
2022-10-22T07:11:47.092Z,1.60
2022-10-22T07:14:16.703Z,4.63
2022-10-22T07:16:45.685Z,2.47
2022-10-22T07:19:14.748Z,3.53
2022-10-22T07:21:42.964Z,4.80
2022-10-22T07:24:11.215Z,4.80
2022-10-22T07:26:39.442Z,8.77
2022-10-22T07:29:08.066Z,11.00
2022-10-22T07:31:37.830Z,4.72
2022-10-22T07:34:06.554Z,2.50
2022-10-22T07:36:35.334Z,4.30
2022-10-22T07:39:04.548Z,1.70
2022-10-22T07:41:32.928Z,4.38
2022-10-22T07:44:01.249Z,11.38
2022-10-22T07:46:29.660Z,9.50
2022-10-22T07:48:59.276Z,0.98
2022-10-22T07:51:27.568Z,2.83
2022-10-22T07:53:56.084Z,3.28
2022-10-22T07:56:24.349Z,0.95
2022-10-22T07:58:52.627Z,3.65
2022-10-22T08:01:21.239Z,0.65
2022-10-22T08:03:49.892Z,1.23
2022-10-22T08:06:19.556Z,5.63
2022-10-22T08:08:48.069Z,1.30
2022-10-22T08:11:16.343Z,4.55
2022-10-22T08:13:45.753Z,2.20
2022-10-22T08:16:15.524Z,1.25
2022-10-22T08:18:44.470Z,10.40
2022-10-22T08:21:13.670Z,0.98
2022-10-22T08:23:43.233Z,4.88
2022-10-22T08:26:12.258Z,4.43
2022-10-22T08:28:43.097Z,3.95
2022-10-22T08:31:12.398Z,0.80
2022-10-22T08:33:41.639Z,1.60
2022-10-22T08:36:10.692Z,0.73
2022-10-22T08:38:39.165Z,1.33
2022-10-22T08:41:17.076Z,3.53
2022-10-22T08:44:22.876Z,2.05
2022-10-22T08:47:17.451Z,1.50
2022-10-22T08:49:48.695Z,5.88
2022-10-22T08:52:20.580Z,3.05
2022-10-22T08:54:54.787Z,1.73
2022-10-22T08:57:41.110Z,1.75
2022-10-22T09:00:16.680Z,4.18
2022-10-22T09:03:03.503Z,2.47
2022-10-22T09:05:45.732Z,2.45
2022-10-22T09:08:16.158Z,11.30
2022-10-22T09:10:49.402Z,2.65
2022-10-22T09:13:22.209Z,1.17
2022-10-22T09:15:56.345Z,0.98
2022-10-22T09:18:38.713Z,2.75
2022-10-22T09:21:20.660Z,1.45
2022-10-22T09:24:04.442Z,5.57
2022-10-22T09:26:38.116Z,6.88
2022-10-22T09:29:08.609Z,0.63
2022-10-22T09:31:37.037Z,0.60
2022-10-22T09:34:07.683Z,8.38
2022-10-22T09:36:38.825Z,2.30
2022-10-22T09:39:25.079Z,0.40
2022-10-22T09:41:53.348Z,0.75
2022-10-22T09:44:23.093Z,1.67
2022-10-22T09:46:51.664Z,0.70
2022-10-22T09:49:22.545Z,0.63
2022-10-22T09:51:55.417Z,3.25
2022-10-22T09:54:26.434Z,2.08
2022-10-22T09:56:58.893Z,1.10
2022-10-22T09:59:32.809Z,3.50
2022-10-22T10:02:19.719Z,8.83
2022-10-22T10:04:52.537Z,1.15
2022-10-22T10:07:23.977Z,0.30
2022-10-22T10:09:54.563Z,9.32
2022-10-22T10:12:36.940Z,0.73
2022-10-22T10:15:19.719Z,1.85
2022-10-22T10:17:59.617Z,6.35
2022-10-22T10:20:42.307Z,0.30
2022-10-22T10:23:20.648Z,4.07
2022-10-22T10:25:59.237Z,3.42
2022-10-22T10:28:42.943Z,3.95
2022-10-22T10:31:23.756Z,2.50
2022-10-22T10:34:05.587Z,2.63
2022-10-22T10:36:44.673Z,4.50
2022-10-22T10:39:20.267Z,2.42
2022-10-22T10:41:57.156Z,1.05
2022-10-22T10:44:47.404Z,3.45
2022-10-22T10:47:41.874Z,5.03
2022-10-22T10:50:22.005Z,8.05
2022-10-22T10:53:02.293Z,5.53
2022-10-22T10:55:37.114Z,2.55
2022-10-22T10:58:19.661Z,0.65
2022-10-22T11:00:56.520Z,2.80
2022-10-22T11:04:07.016Z,2.28
2022-10-22T11:06:38.480Z,1.90
2022-10-22T11:09:15.595Z,0.95
2022-10-22T11:11:50.004Z,3.17
2022-10-22T11:14:25.220Z,3.40
2022-10-22T11:17:01.794Z,2.50
2022-10-22T11:19:57.803Z,4.65
2022-10-22T11:22:33.661Z,2.70
2022-10-22T11:25:13.769Z,2.20
2022-10-22T11:27:48.836Z,5.63
2022-10-22T11:30:19.748Z,4.78
2022-10-22T11:32:54.332Z,10.10
2022-10-22T11:35:27.792Z,0.90
2022-10-22T11:37:58.040Z,0.75
2022-10-22T11:40:36.904Z,2.63
2022-10-22T11:43:08.671Z,2.03
2022-10-22T11:45:39.233Z,2.55
2022-10-22T11:48:17.041Z,1.08
2022-10-22T11:50:52.917Z,4.55
2022-10-22T11:53:33.963Z,5.97
2022-10-22T11:56:24.191Z,3.13
2022-10-22T11:58:54.973Z,2.97
2022-10-22T12:01:29.466Z,2.78
2022-10-22T12:04:23.532Z,3.35
2022-10-22T12:07:00.005Z,4.57
2022-10-22T12:09:32.379Z,6.00
2022-10-22T12:12:14.302Z,3.42
2022-10-22T12:14:55.572Z,4.28
2022-10-22T12:17:24.892Z,3.97
2022-10-22T12:20:02.374Z,3.42
2022-10-22T12:22:37.099Z,2.50
2022-10-22T12:25:18.153Z,4.47
2022-10-22T12:27:50.789Z,2.35
2022-10-22T12:30:23.637Z,2.08
2022-10-22T12:32:56.154Z,3.25
2022-10-22T12:35:27.657Z,1.08
2022-10-22T12:38:01.591Z,10.02
2022-10-22T12:40:34.240Z,2.85
2022-10-22T12:45:40.362Z,1.73
2022-10-22T12:48:16.565Z,6.43
2022-10-22T12:50:48.101Z,1.35
2022-10-22T12:53:23.985Z,0.93
2022-10-22T12:55:54.902Z,4.55
2022-10-22T13:01:43.025Z,2.80
2022-10-22T13:04:23.998Z,3.05
2022-10-22T13:07:04.497Z,2.83
2022-10-22T13:09:41.896Z,8.35
2022-10-22T13:12:16.147Z,3.22
2022-10-22T13:14:47.055Z,5.13
2022-10-22T13:17:18.297Z,2.15
2022-10-22T13:19:50.920Z,2.20
2022-10-22T13:22:33.479Z,2.28
2022-10-22T13:25:22.289Z,2.15
2022-10-22T13:27:53.065Z,1.42
2022-10-22T13:30:25.132Z,3.80
2022-10-22T13:32:58.958Z,5.00
2022-10-22T13:35:32.035Z,1.33
2022-10-22T13:38:00.843Z,2.22
2022-10-22T13:40:30.768Z,3.08
2022-10-22T13:42:59.376Z,6.88
2022-10-22T13:45:28.217Z,1.80
2022-10-22T13:47:57.050Z,1.75
2022-10-22T13:50:26.341Z,1.85
2022-10-22T13:52:57.345Z,4.70
2022-10-22T13:55:28.999Z,4.53
2022-10-22T13:58:02.631Z,1.70
2022-10-22T14:00:30.999Z,5.40
2022-10-22T14:03:00.787Z,4.18
2022-10-22T14:05:30.482Z,4.30
2022-10-22T14:08:00.303Z,1.05
2022-10-22T14:10:29.244Z,1.75
2022-10-22T14:12:59.081Z,4.55
2022-10-22T14:15:29.699Z,4.20
2022-10-22T14:18:00.324Z,2.88
2022-10-22T14:20:31.679Z,3.22
2022-10-22T14:25:50.923Z,2.90
2022-10-22T14:28:21.004Z,11.45
2022-10-22T14:30:49.828Z,8.45
2022-10-22T14:33:24.730Z,1.80
2022-10-22T14:35:56.040Z,2.35
2022-10-22T14:38:24.776Z,8.07
2022-10-22T14:40:53.351Z,8.38
2022-10-22T14:43:26.205Z,2.45
2022-10-22T14:45:55.113Z,3.83
2022-10-22T14:48:23.646Z,2.85
2022-10-22T14:50:52.467Z,2.83
2022-10-22T14:53:21.063Z,5.78
2022-10-22T14:55:51.413Z,4.45
2022-10-22T14:58:19.655Z,7.60
2022-10-22T15:00:49.275Z,3.65
2022-10-22T15:03:17.948Z,5.07
2022-10-22T15:05:46.407Z,7.53
2022-10-22T15:08:15.922Z,3.55
2022-10-22T15:10:44.083Z,4.72
2022-10-22T15:13:12.660Z,4.97
2022-10-22T15:15:41.869Z,7.93
2022-10-22T15:18:11.396Z,9.70
2022-10-22T15:20:39.934Z,1.33
2022-10-22T15:23:08.489Z,2.75
2022-10-22T15:25:36.710Z,4.75
2022-10-22T15:28:09.902Z,2.95
2022-10-22T15:30:38.471Z,5.07
2022-10-22T15:33:07.262Z,8.00
2022-10-22T15:35:36.834Z,3.83
2022-10-22T15:38:06.486Z,2.65
2022-10-22T15:40:35.142Z,6.55
2022-10-22T15:43:03.819Z,4.78
2022-10-22T15:45:32.027Z,4.57
2022-10-22T15:48:00.225Z,13.88
2022-10-22T15:50:28.761Z,10.75
2022-10-22T15:52:58.651Z,7.97
2022-10-22T15:55:27.025Z,3.55
2022-10-22T15:57:58.067Z,3.33
2022-10-22T16:00:28.859Z,3.13
2022-10-22T16:02:57.351Z,5.18
2022-10-22T16:05:27.721Z,4.43
2022-10-22T16:07:57.668Z,4.38
2022-10-22T16:10:28.020Z,14.43
2022-10-22T16:12:57.820Z,8.77
2022-10-22T16:15:26.375Z,13.88
2022-10-22T16:17:54.871Z,13.70
2022-10-22T16:20:23.379Z,16.85
2022-10-22T16:22:52.092Z,15.27
2022-10-22T16:25:21.678Z,11.27
2022-10-22T16:27:51.596Z,8.82
2022-10-22T16:30:19.849Z,9.70
2022-10-22T16:32:48.052Z,11.93
2022-10-22T16:35:16.644Z,7.22
2022-10-22T16:37:45.134Z,6.75
2022-10-22T16:40:14.162Z,17.33
2022-10-22T16:42:44.498Z,12.85
2022-10-22T16:45:13.011Z,11.77
2022-10-22T16:47:43.007Z,8.55
2022-10-22T16:50:11.655Z,7.53
2022-10-22T16:52:40.306Z,5.97
2022-10-22T16:55:09.863Z,4.95
2022-10-22T16:57:38.457Z,10.55
2022-10-22T17:00:10.610Z,4.15
2022-10-22T17:02:39.453Z,9.20
2022-10-22T17:05:09.035Z,9.32
2022-10-22T17:07:37.255Z,3.38
2022-10-22T17:10:08.965Z,7.72
2022-10-22T17:12:37.722Z,9.48
2022-10-22T17:15:09.517Z,8.05
2022-10-22T17:17:37.964Z,7.72
2022-10-22T17:20:07.868Z,7.60
2022-10-22T17:22:36.479Z,12.93
2022-10-22T17:25:13.366Z,15.27
2022-10-22T17:27:42.570Z,7.85
2022-10-22T17:30:16.876Z,2.60
2022-10-22T17:32:45.865Z,10.00
2022-10-22T17:35:16.412Z,12.43
2022-10-22T17:37:44.975Z,8.70
2022-10-22T17:40:15.251Z,6.60
2022-10-22T17:42:45.352Z,14.00
2022-10-22T17:45:14.996Z,11.75
2022-10-22T17:47:43.780Z,5.20
2022-10-22T17:50:12.264Z,10.25
2022-10-22T17:52:42.661Z,3.97
2022-10-22T17:55:13.112Z,3.88
2022-10-22T17:57:41.367Z,7.10
2022-10-22T18:00:11.572Z,4.85
2022-10-22T18:02:42.545Z,4.03
2022-10-22T18:05:12.835Z,6.20
2022-10-22T18:07:41.302Z,4.90
2022-10-22T18:10:11.040Z,6.30
2022-10-22T18:12:39.810Z,5.60
2022-10-22T18:15:09.304Z,5.00
2022-10-22T18:17:41.536Z,5.47
2022-10-22T18:20:11.892Z,3.20
2022-10-22T18:22:41.299Z,11.95
2022-10-22T18:25:10.877Z,4.93
2022-10-22T18:27:40.137Z,8.05
2022-10-22T18:30:09.926Z,14.07
2022-10-22T18:32:38.181Z,4.43
2022-10-22T18:35:08.792Z,7.40
2022-10-22T18:37:38.690Z,4.57
2022-10-22T18:40:12.483Z,12.48
2022-10-22T18:42:43.203Z,7.72
2022-10-22T18:45:12.033Z,14.70
2022-10-22T18:47:42.096Z,11.75
2022-10-22T18:50:11.954Z,7.47
2022-10-22T18:52:40.626Z,7.95
2022-10-22T18:55:09.948Z,12.55
2022-10-22T18:57:38.883Z,14.23
2022-10-22T19:00:09.315Z,5.07
2022-10-22T19:02:39.044Z,6.85
2022-10-22T19:05:08.624Z,12.15
2022-10-22T19:07:38.339Z,14.32
2022-10-22T19:10:08.203Z,7.50
2022-10-22T19:12:37.142Z,9.30
2022-10-22T19:15:06.527Z,6.53
2022-10-22T19:17:35.772Z,14.00
2022-10-22T19:20:04.368Z,14.68
2022-10-22T19:22:33.469Z,8.93
2022-10-22T19:25:04.275Z,14.48
2022-10-22T19:27:36.395Z,8.70
2022-10-22T19:30:05.563Z,10.73
2022-10-22T19:32:34.036Z,14.68
2022-10-22T19:35:02.471Z,8.25
2022-10-22T19:37:31.135Z,8.57
2022-10-22T19:39:59.607Z,19.27
2022-10-22T19:42:29.132Z,15.02
2022-10-22T19:44:57.802Z,8.55
2022-10-22T19:47:26.365Z,6.65
2022-10-22T19:49:55.153Z,16.20
2022-10-22T19:52:23.390Z,12.30
2022-10-22T19:54:51.859Z,10.88
2022-10-22T19:57:20.458Z,11.52
2022-10-22T19:59:49.976Z,14.68
2022-10-22T20:02:19.714Z,5.82
2022-10-22T20:04:49.934Z,6.53
2022-10-22T20:07:18.703Z,7.75
2022-10-22T20:09:47.208Z,19.77
2022-10-22T20:12:15.483Z,18.00
2022-10-22T20:14:43.716Z,21.95
2022-10-22T20:17:13.512Z,23.55
2022-10-22T20:19:42.020Z,20.27
2022-10-22T20:22:12.619Z,15.60
2022-10-22T20:24:43.613Z,12.93
2022-10-22T20:27:12.138Z,18.02
2022-10-22T20:29:40.415Z,15.95
2022-10-22T20:32:08.978Z,17.50
2022-10-22T20:34:39.456Z,18.00
2022-10-22T20:37:07.979Z,16.00
2022-10-22T20:39:36.623Z,19.17
2022-10-22T20:42:04.973Z,16.35
2022-10-22T20:44:33.146Z,15.32
2022-10-22T20:47:01.744Z,14.02
2022-10-22T20:49:30.032Z,14.80
2022-10-22T20:51:59.779Z,9.82
2022-10-22T20:54:28.514Z,12.90
2022-10-22T20:56:57.787Z,10.30
2022-10-22T20:59:32.695Z,16.77
2022-10-22T21:02:01.676Z,22.35
2022-10-22T21:04:31.136Z,30.45
2022-10-22T21:07:00.864Z,23.67
2022-10-22T21:09:29.404Z,7.93
2022-10-22T21:12:03.071Z,18.08
2022-10-22T21:14:31.425Z,6.65
2022-10-22T21:17:00.243Z,6.72
2022-10-22T21:19:28.753Z,5.65
2022-10-22T21:21:57.210Z,12.27
2022-10-22T21:24:27.140Z,10.50
2022-10-22T21:26:55.336Z,9.40
2022-10-22T21:29:23.620Z,9.43
2022-10-22T21:31:53.359Z,14.25
2022-10-22T21:34:21.576Z,19.42
2022-10-22T21:36:50.071Z,11.93
2022-10-22T21:39:18.245Z,6.07
2022-10-22T21:41:47.853Z,12.98
2022-10-22T21:44:16.045Z,7.97
2022-10-22T21:46:44.229Z,7.25
2022-10-22T21:49:14.287Z,8.68
2022-10-22T21:51:44.572Z,15.00
2022-10-22T21:54:13.541Z,15.95
2022-10-22T21:56:42.439Z,7.15
2022-10-22T21:59:11.970Z,9.30
2022-10-22T22:01:40.229Z,16.80
2022-10-22T22:04:08.788Z,5.95
2022-10-22T22:06:37.294Z,10.43
2022-10-22T22:09:06.689Z,4.75
2022-10-22T22:11:35.409Z,11.80
2022-10-22T22:14:03.904Z,9.85
2022-10-22T22:16:35.224Z,20.50
2022-10-22T22:19:07.126Z,11.52
2022-10-22T22:21:39.084Z,10.05
2022-10-22T22:24:09.222Z,13.18
2022-10-22T22:26:38.104Z,11.85
2022-10-22T22:29:06.651Z,8.98
2022-10-22T22:31:37.515Z,7.00
2022-10-22T22:34:08.281Z,9.13
2022-10-22T22:36:39.012Z,7.35
2022-10-22T22:39:09.751Z,13.43
2022-10-22T22:41:38.080Z,10.45
2022-10-22T22:44:06.752Z,13.13
2022-10-22T22:46:36.799Z,13.02
2022-10-22T22:49:05.639Z,27.25
2022-10-22T22:51:34.428Z,52.03
2022-10-22T22:54:03.292Z,40.38
2022-10-22T22:56:34.231Z,30.38
2022-10-22T22:59:03.195Z,22.38
2022-10-22T23:01:33.400Z,27.75
2022-10-22T23:04:06.334Z,11.02
2022-10-22T23:06:37.721Z,10.15
2022-10-22T23:09:09.061Z,6.10
2022-10-22T23:11:37.658Z,5.88
2022-10-22T23:14:08.396Z,5.43
2022-10-22T23:16:40.696Z,6.85
2022-10-22T23:19:11.252Z,7.28
2022-10-22T23:21:42.734Z,3.60
2022-10-22T23:24:15.161Z,5.57
2022-10-22T23:26:47.407Z,5.35
2022-10-22T23:29:18.416Z,8.35
2022-10-22T23:31:48.390Z,6.03
2022-10-22T23:36:54.061Z,16.98
2022-10-22T23:39:25.096Z,10.02
2022-10-22T23:41:54.184Z,6.40
2022-10-22T23:44:23.342Z,7.22
2022-10-22T23:46:52.483Z,16.40
2022-10-22T23:49:22.158Z,6.85
2022-10-22T23:51:50.732Z,9.52
2022-10-22T23:54:19.375Z,5.25
2022-10-22T23:56:47.610Z,7.68
2022-10-22T23:59:16.380Z,11.88
